Seal Rock, Oregon
Current Conditions -  °F | °C
As of 2:15 PM on Saturday 20 Dec 2014 (Local Time) from KONP Reporting Station
Light Rain Light Rain  
Wind Chill: 55°   Ceiling: 300
Heat Index: 55°   Visibility: 1.5mi
Dew Point: 55°   Wind: 24mph
Humidity: 100%   Direction: 220°SW
Pressure: 29.73"   Gusts: 32mph
Location:  44.49°N, 124.08°W
Report Text: KONP 202215Z AUTO 22021G28KT 1 1/2SM -RA OVC003 13/13 A2973 RMK AO2 P0001
Loading
Personal Weather Stations






























Interactive Weather Map New forecast layout! Learn more

10-Day Weather Forecast

Advertisements
Track Severe Weather on mobile